createdAt,value
2018-12-20T00:00:29.451Z,97.69
2018-12-20T00:01:29.385Z,97.88
2018-12-20T00:02:29.397Z,97.88
2018-12-20T00:03:29.389Z,97.88
2018-12-20T00:04:29.348Z,97.97
2018-12-20T00:05:29.353Z,97.97
2018-12-20T00:06:29.424Z,97.69
2018-12-20T00:07:29.349Z,98.17
2018-12-20T00:08:29.414Z,98.17
2018-12-20T00:09:29.376Z,97.97
2018-12-20T00:10:29.304Z,98.07
2018-12-20T00:11:29.344Z,98.07
2018-12-20T00:12:29.382Z,97.60
2018-12-20T00:13:29.276Z,97.50
2018-12-20T00:14:30.065Z,97.78
2018-12-20T00:15:29.262Z,98.07
2018-12-20T00:16:29.253Z,97.60
2018-12-20T00:17:29.366Z,97.69
2018-12-20T00:18:29.264Z,98.26
2018-12-20T00:19:29.235Z,98.17
2018-12-20T00:20:29.221Z,97.88
2018-12-20T00:21:29.213Z,97.60
2018-12-20T00:22:29.207Z,98.17
2018-12-20T00:23:29.228Z,97.78
2018-12-20T00:24:29.190Z,97.97
2018-12-20T00:25:29.230Z,97.97
2018-12-20T00:26:29.207Z,97.88
2018-12-20T00:27:29.168Z,98.55
2018-12-20T00:28:29.188Z,97.88
2018-12-20T00:29:29.151Z,97.97
2018-12-20T00:30:29.205Z,97.97
2018-12-20T00:31:29.137Z,98.17
2018-12-20T00:32:29.195Z,98.17
2018-12-20T00:33:29.161Z,97.88
2018-12-20T00:34:29.133Z,97.97
2018-12-20T00:35:29.124Z,97.97
2018-12-20T00:36:29.096Z,97.97
2018-12-20T00:37:29.182Z,97.78
2018-12-20T00:38:29.085Z,98.17
2018-12-20T00:39:29.074Z,98.36
2018-12-20T00:40:29.095Z,97.97
2018-12-20T00:41:29.178Z,98.36
2018-12-20T00:42:29.067Z,98.17
2018-12-20T00:43:29.112Z,97.97
2018-12-20T00:44:29.033Z,98.36
2018-12-20T00:45:29.056Z,98.07
2018-12-20T00:46:29.234Z,97.97
2018-12-20T00:47:29.025Z,97.97
2018-12-20T00:48:29.070Z,97.97
2018-12-20T00:49:29.079Z,98.17
2018-12-20T00:50:28.987Z,98.07
2018-12-20T00:51:29.637Z,97.50
2018-12-20T00:52:29.113Z,97.60
2018-12-20T00:53:28.987Z,97.60
2018-12-20T00:54:28.995Z,97.03
2018-12-20T00:55:28.962Z,98.07
2018-12-20T00:56:28.941Z,97.50
2018-12-20T00:57:29.094Z,98.17
2018-12-20T00:58:28.922Z,96.74
2018-12-20T00:59:29.130Z,96.74
2018-12-20T01:00:28.908Z,97.22
2018-12-20T01:01:29.011Z,97.41
2018-12-20T01:02:28.895Z,97.03
2018-12-20T01:03:28.905Z,97.12
2018-12-20T01:04:28.871Z,97.12
2018-12-20T01:05:28.981Z,97.22
2018-12-20T01:06:28.964Z,97.12
2018-12-20T01:07:29.847Z,97.12
2018-12-20T01:08:28.850Z,96.74
2018-12-20T01:09:28.929Z,97.12
2018-12-20T01:10:28.902Z,97.12
2018-12-20T01:11:28.940Z,97.03
2018-12-20T01:12:28.805Z,96.74
2018-12-20T01:13:28.824Z,96.93
2018-12-20T01:14:28.839Z,97.12
2018-12-20T01:15:28.852Z,96.74
2018-12-20T01:16:28.897Z,97.03
2018-12-20T01:17:28.766Z,97.60
2018-12-20T01:18:28.782Z,97.41
2018-12-20T01:19:28.887Z,97.22
2018-12-20T01:20:28.742Z,97.31
2018-12-20T01:21:28.741Z,97.12
2018-12-20T01:22:28.803Z,97.22
2018-12-20T01:23:28.717Z,97.12
2018-12-20T01:24:28.924Z,97.22
2018-12-20T01:25:28.727Z,97.41
2018-12-20T01:26:28.815Z,97.97
2018-12-20T01:27:28.779Z,97.60
2018-12-20T01:28:28.762Z,96.93
2018-12-20T01:29:28.699Z,97.50
2018-12-20T01:30:28.662Z,96.74
2018-12-20T01:31:28.653Z,97.22
2018-12-20T01:32:28.661Z,96.93
2018-12-20T01:33:28.639Z,97.12
2018-12-20T01:34:28.781Z,97.22
2018-12-20T01:35:28.620Z,97.12
2018-12-20T01:36:28.717Z,97.03
2018-12-20T01:37:28.605Z,96.93
2018-12-20T01:38:28.605Z,96.93
2018-12-20T01:39:28.744Z,96.84
2018-12-20T01:40:28.812Z,97.22
2018-12-20T01:41:28.653Z,96.93
2018-12-20T01:42:28.598Z,96.84
2018-12-20T01:43:28.762Z,97.31
2018-12-20T01:44:28.555Z,97.12
2018-12-20T01:45:28.690Z,97.60
2018-12-20T01:46:28.647Z,97.50
2018-12-20T01:47:28.523Z,97.60
2018-12-20T01:48:28.584Z,96.93
2018-12-20T01:49:28.508Z,97.03
2018-12-20T01:50:28.665Z,98.17
2018-12-20T01:51:28.669Z,97.22
2018-12-20T01:52:28.509Z,96.93
2018-12-20T01:53:28.620Z,96.93
2018-12-20T01:54:28.745Z,96.84
2018-12-20T01:55:28.459Z,97.22
2018-12-20T01:56:28.451Z,96.84
2018-12-20T01:57:28.527Z,97.12
2018-12-20T01:58:28.544Z,97.03
2018-12-20T01:59:28.439Z,96.93
2018-12-20T02:00:28.418Z,97.41
2018-12-20T02:01:28.463Z,97.41
2018-12-20T02:02:28.454Z,96.36
2018-12-20T02:03:28.472Z,96.74
2018-12-20T02:04:28.412Z,96.93
2018-12-20T02:05:28.379Z,97.12
2018-12-20T02:06:28.369Z,97.22
2018-12-20T02:07:28.364Z,96.74
2018-12-20T02:08:28.536Z,97.22
2018-12-20T02:09:28.398Z,97.22
2018-12-20T02:10:28.503Z,97.22
2018-12-20T02:11:28.414Z,96.93
2018-12-20T02:12:28.323Z,96.74
2018-12-20T02:13:28.314Z,97.03
2018-12-20T02:14:28.306Z,96.93
2018-12-20T02:15:28.366Z,97.12
2018-12-20T02:16:28.353Z,97.41
2018-12-20T02:17:28.316Z,96.84
2018-12-20T02:18:28.288Z,96.55
2018-12-20T02:19:28.413Z,96.74
2018-12-20T02:20:28.258Z,95.98
2018-12-20T02:21:28.342Z,96.08
2018-12-20T02:22:28.251Z,96.26
2018-12-20T02:23:28.644Z,96.26
2018-12-20T02:24:28.226Z,95.79
2018-12-20T02:25:28.256Z,95.79
2018-12-20T02:26:28.282Z,96.26
2018-12-20T02:27:28.234Z,95.98
2018-12-20T02:28:28.340Z,96.17
2018-12-20T02:29:28.187Z,95.98
2018-12-20T02:30:28.253Z,95.79
2018-12-20T02:31:28.171Z,95.79
2018-12-20T02:32:28.308Z,96.17
2018-12-20T02:33:28.345Z,95.98
2018-12-20T02:34:28.147Z,96.74
2018-12-20T02:35:28.428Z,96.65
2018-12-20T02:36:28.286Z,96.55
2018-12-20T02:37:28.281Z,96.55
2018-12-20T02:38:28.317Z,96.74
2018-12-20T02:39:28.178Z,95.65
2018-12-20T02:40:28.304Z,96.17
2018-12-20T02:41:28.100Z,95.79
2018-12-20T02:42:28.090Z,95.98
2018-12-20T02:43:28.079Z,95.98
2018-12-20T02:44:28.067Z,96.17
2018-12-20T02:45:28.078Z,96.03
2018-12-20T02:46:28.053Z,96.08
2018-12-20T02:47:28.106Z,96.17
2018-12-20T02:48:28.039Z,96.45
2018-12-20T02:49:28.026Z,95.75
2018-12-20T02:50:28.153Z,95.98
2018-12-20T02:51:28.014Z,95.75
2018-12-20T02:52:28.164Z,96.03
2018-12-20T02:53:28.252Z,96.08
2018-12-20T02:54:27.991Z,95.94
2018-12-20T02:55:27.980Z,96.03
2018-12-20T02:56:27.970Z,96.17
2018-12-20T02:57:28.001Z,95.98
2018-12-20T02:58:28.005Z,96.17
2018-12-20T02:59:28.149Z,95.94
2018-12-20T03:00:28.119Z,96.03
2018-12-20T03:01:27.932Z,96.26
2018-12-20T03:02:27.923Z,96.12
2018-12-20T03:03:27.971Z,96.17
2018-12-20T03:04:28.053Z,96.08
2018-12-20T03:05:27.898Z,96.12
2018-12-20T03:06:27.893Z,95.98
2018-12-20T03:07:27.882Z,96.08
2018-12-20T03:08:27.872Z,96.31
2018-12-20T03:09:27.865Z,96.17
2018-12-20T03:10:27.864Z,96.84
2018-12-20T03:11:27.850Z,96.17
2018-12-20T03:12:27.964Z,95.84
2018-12-20T03:13:29.675Z,95.89
2018-12-20T03:14:27.998Z,95.98
2018-12-20T03:15:27.902Z,96.36
2018-12-20T03:16:27.815Z,96.74
2018-12-20T03:17:27.800Z,96.08
2018-12-20T03:18:28.073Z,96.74
2018-12-20T03:19:27.876Z,96.93
2018-12-20T03:20:27.942Z,97.41
2018-12-20T03:21:27.799Z,97.97
2018-12-20T03:22:27.768Z,97.78
2018-12-20T03:23:27.808Z,98.17
2018-12-20T03:24:27.764Z,98.26
2018-12-20T03:25:27.800Z,97.88
2018-12-20T03:26:27.881Z,98.07
2018-12-20T03:27:27.797Z,97.97
2018-12-20T03:28:27.776Z,98.07
2018-12-20T03:29:27.717Z,97.50
2018-12-20T03:30:27.748Z,97.03
2018-12-20T03:31:27.823Z,98.07
2018-12-20T03:32:27.686Z,97.41
2018-12-20T03:33:27.967Z,96.84
2018-12-20T03:34:27.671Z,97.97
2018-12-20T03:35:27.659Z,97.60
2018-12-20T03:36:27.651Z,97.97
2018-12-20T03:37:27.857Z,97.78
2018-12-20T03:38:27.723Z,97.88
2018-12-20T03:39:27.631Z,97.41
2018-12-20T03:40:27.618Z,97.41
2018-12-20T03:41:27.611Z,97.60
2018-12-20T03:42:27.734Z,97.60
2018-12-20T03:43:27.595Z,97.97
2018-12-20T03:44:27.808Z,97.12
2018-12-20T03:45:28.967Z,96.93
2018-12-20T03:46:27.569Z,97.03
2018-12-20T03:47:27.807Z,97.12
2018-12-20T03:48:27.553Z,96.93
2018-12-20T03:49:27.545Z,96.93
2018-12-20T03:50:27.649Z,97.12
2018-12-20T03:51:27.577Z,96.88
2018-12-20T03:52:27.605Z,97.12
2018-12-20T03:53:27.676Z,97.31
2018-12-20T03:54:27.593Z,97.22
2018-12-20T03:55:27.850Z,97.50
2018-12-20T03:56:27.488Z,97.03
2018-12-20T03:57:27.479Z,97.88
2018-12-20T03:58:27.585Z,97.78
2018-12-20T03:59:27.464Z,97.78
2018-12-20T04:00:27.497Z,97.60
2018-12-20T04:01:27.641Z,97.78
2018-12-20T04:02:27.440Z,98.07
2018-12-20T04:03:27.489Z,97.88
2018-12-20T04:04:27.612Z,97.31
2018-12-20T04:05:27.444Z,97.97
2018-12-20T04:06:27.571Z,98.17
2018-12-20T04:07:27.542Z,96.84
2018-12-20T04:08:27.389Z,98.17
2018-12-20T04:09:27.586Z,97.88
2018-12-20T04:10:27.383Z,97.41
2018-12-20T04:11:27.612Z,97.60
2018-12-20T04:12:27.522Z,97.78
2018-12-20T04:13:27.462Z,97.97
2018-12-20T04:14:27.348Z,98.07
2018-12-20T04:15:27.359Z,97.78
2018-12-20T04:16:27.420Z,97.69
2018-12-20T04:17:27.357Z,98.36
2018-12-20T04:18:41.895Z,97.88
2018-12-20T04:19:27.475Z,97.60
2018-12-20T04:20:27.296Z,97.88
2018-12-20T04:21:27.391Z,98.07
2018-12-20T04:22:27.278Z,98.17
2018-12-20T04:23:27.268Z,98.07
2018-12-20T04:24:27.448Z,98.07
2018-12-20T04:25:27.406Z,98.36
2018-12-20T04:26:28.414Z,97.60
2018-12-20T04:27:27.318Z,98.17
2018-12-20T04:28:27.400Z,97.88
2018-12-20T04:29:27.288Z,97.88
2018-12-20T04:30:27.253Z,98.26
2018-12-20T04:31:27.217Z,98.17
2018-12-20T04:32:27.549Z,98.36
2018-12-20T04:33:27.520Z,98.07
2018-12-20T04:34:27.220Z,98.36
2018-12-20T04:35:27.391Z,97.88
2018-12-20T04:36:27.244Z,97.78
2018-12-20T04:37:27.167Z,98.07
2018-12-20T04:38:27.146Z,97.97
2018-12-20T04:39:27.225Z,98.17
2018-12-20T04:40:27.326Z,97.78
2018-12-20T04:41:27.122Z,97.97
2018-12-20T04:42:27.254Z,97.88
2018-12-20T04:43:27.126Z,97.88
2018-12-20T04:44:27.289Z,98.36
2018-12-20T04:45:27.087Z,97.78
2018-12-20T04:46:27.237Z,98.17
2018-12-20T04:47:27.062Z,97.97
2018-12-20T04:48:27.065Z,98.07
2018-12-20T04:49:27.195Z,98.36
2018-12-20T04:50:27.252Z,97.97
2018-12-20T04:51:27.039Z,99.11
2018-12-20T04:52:27.054Z,98.07
2018-12-20T04:53:27.049Z,97.97
2018-12-20T04:54:27.104Z,98.02
2018-12-20T04:55:27.141Z,97.97
2018-12-20T04:56:27.254Z,97.78
2018-12-20T04:57:27.168Z,98.07
2018-12-20T04:58:27.130Z,97.88
2018-12-20T04:59:27.026Z,97.88
2018-12-20T05:00:26.965Z,98.45
2018-12-20T05:01:26.987Z,97.60
2018-12-20T05:02:26.948Z,97.97
2018-12-20T05:03:27.284Z,98.45
2018-12-20T05:04:26.932Z,98.12
2018-12-20T05:05:27.202Z,97.78
2018-12-20T05:06:26.916Z,98.17
2018-12-20T05:07:26.926Z,98.21
2018-12-20T05:08:26.899Z,97.92
2018-12-20T05:09:26.889Z,97.83
2018-12-20T05:10:27.152Z,98.17
2018-12-20T05:11:26.900Z,98.17
2018-12-20T05:12:26.915Z,97.74
2018-12-20T05:13:26.983Z,97.60
2018-12-20T05:14:26.870Z,97.83
2018-12-20T05:15:26.836Z,98.17
2018-12-20T05:16:26.823Z,98.12
2018-12-20T05:17:26.825Z,97.92
2018-12-20T05:18:26.889Z,98.26
2018-12-20T05:19:27.132Z,97.55
2018-12-20T05:20:26.802Z,97.97
2018-12-20T05:21:26.796Z,97.78
2018-12-20T05:22:26.845Z,98.02
2018-12-20T05:23:26.815Z,97.78
2018-12-20T05:24:26.767Z,98.31
2018-12-20T05:25:26.784Z,97.97
2018-12-20T05:26:26.782Z,97.97
2018-12-20T05:27:27.250Z,98.45
2018-12-20T05:28:26.733Z,98.36
2018-12-20T05:29:26.763Z,98.55
2018-12-20T05:30:26.720Z,98.36
2018-12-20T05:31:26.710Z,97.88
2018-12-20T05:32:26.826Z,98.36
2018-12-20T05:33:26.799Z,97.78
2018-12-20T05:34:26.685Z,98.26
2018-12-20T05:35:26.677Z,98.17
2018-12-20T05:36:26.746Z,98.17
2018-12-20T05:37:26.662Z,98.26
2018-12-20T05:38:26.659Z,98.26
2018-12-20T05:39:26.671Z,97.97
2018-12-20T05:40:26.638Z,97.88
2018-12-20T05:41:26.681Z,98.55
2018-12-20T05:42:26.621Z,99.21
2018-12-20T05:43:26.848Z,98.17
2018-12-20T05:44:26.861Z,98.36
2018-12-20T05:45:26.585Z,98.45
2018-12-20T05:46:26.749Z,98.93
2018-12-20T05:47:26.579Z,99.02
2018-12-20T05:48:26.771Z,98.93
2018-12-20T05:49:26.717Z,99.02
2018-12-20T05:50:26.557Z,99.50
2018-12-20T05:51:26.727Z,98.45
2018-12-20T05:52:26.759Z,99.02
2018-12-20T05:53:26.697Z,99.30
2018-12-20T05:54:26.641Z,98.55
2018-12-20T05:55:26.540Z,98.64
2018-12-20T05:56:26.507Z,98.93
2018-12-20T05:57:26.501Z,99.02
2018-12-20T05:58:27.552Z,98.83
2018-12-20T05:59:26.714Z,98.93
2018-12-20T06:00:26.509Z,99.02
2018-12-20T06:01:26.471Z,98.93
2018-12-20T06:02:26.460Z,99.11
2018-12-20T06:03:26.497Z,98.93
2018-12-20T06:04:26.684Z,98.45
2018-12-20T06:05:26.481Z,98.26
2018-12-20T06:06:26.536Z,99.11
2018-12-20T06:07:26.763Z,98.83
2018-12-20T06:08:26.412Z,99.21
2018-12-20T06:09:26.466Z,98.36
2018-12-20T06:10:26.464Z,98.93
2018-12-20T06:11:26.434Z,98.64
2018-12-20T06:12:26.379Z,99.02
2018-12-20T06:13:26.433Z,98.93
2018-12-20T06:14:26.588Z,98.83
2018-12-20T06:15:26.578Z,98.93
2018-12-20T06:16:26.355Z,99.21
2018-12-20T06:17:26.603Z,98.36
2018-12-20T06:18:26.332Z,98.26
2018-12-20T06:19:26.379Z,98.36
2018-12-20T06:20:26.323Z,97.97
2018-12-20T06:21:26.311Z,97.88
2018-12-20T06:22:26.428Z,97.60
2018-12-20T06:23:26.312Z,97.97
2018-12-20T06:24:26.283Z,98.26
2018-12-20T06:25:26.281Z,98.07
2018-12-20T06:26:26.270Z,98.17
2018-12-20T06:27:26.262Z,97.97
2018-12-20T06:28:26.253Z,97.60
2018-12-20T06:29:26.245Z,98.17
2018-12-20T06:30:26.235Z,97.88
2018-12-20T06:31:26.227Z,98.45
2018-12-20T06:32:26.219Z,97.78
2018-12-20T06:33:26.210Z,98.26
2018-12-20T06:34:26.210Z,97.97
2018-12-20T06:35:26.196Z,97.78
2018-12-20T06:36:26.186Z,97.50
2018-12-20T06:37:26.182Z,98.07
2018-12-20T06:38:26.173Z,97.97
2018-12-20T06:39:26.164Z,97.60
2018-12-20T06:40:26.159Z,97.97
2018-12-20T06:41:26.137Z,97.31
2018-12-20T06:42:26.129Z,97.60
2018-12-20T06:43:26.130Z,97.31
2018-12-20T06:44:26.125Z,97.69
2018-12-20T06:45:26.166Z,96.93
2018-12-20T06:46:26.095Z,96.93
2018-12-20T06:47:26.102Z,96.93
2018-12-20T06:48:26.093Z,96.74
2018-12-20T06:49:26.081Z,97.12
2018-12-20T06:50:26.074Z,97.41
2018-12-20T06:51:26.069Z,96.93
2018-12-20T06:52:26.069Z,97.97
2018-12-20T06:53:26.049Z,97.88
2018-12-20T06:54:26.041Z,97.97
2018-12-20T06:55:26.037Z,98.17
2018-12-20T06:56:26.042Z,97.60
2018-12-20T06:57:26.019Z,97.97
2018-12-20T06:58:26.009Z,96.93
2018-12-20T06:59:26.126Z,96.93
2018-12-20T07:00:26.001Z,97.78
2018-12-20T07:01:25.987Z,97.12
2018-12-20T07:02:25.980Z,96.84
2018-12-20T07:03:25.972Z,97.12
2018-12-20T07:04:25.961Z,97.12
2018-12-20T07:05:25.953Z,97.12
2018-12-20T07:06:25.945Z,97.12
2018-12-20T07:07:25.943Z,97.97
2018-12-20T07:08:25.928Z,97.78
2018-12-20T07:09:25.924Z,97.78
2018-12-20T07:10:25.914Z,97.78
2018-12-20T07:11:25.904Z,97.97
2018-12-20T07:12:25.896Z,96.93
2018-12-20T07:13:25.891Z,97.78
2018-12-20T07:14:25.880Z,97.88
2018-12-20T07:15:25.881Z,98.17
2018-12-20T07:16:29.453Z,98.17
2018-12-20T07:17:25.856Z,97.88
2018-12-20T07:18:25.848Z,98.26
2018-12-20T07:19:25.839Z,97.97
2018-12-20T07:20:25.834Z,97.97
2018-12-20T07:21:25.827Z,98.17
2018-12-20T07:22:25.823Z,98.17
2018-12-20T07:23:25.808Z,97.60
2018-12-20T07:24:25.800Z,97.97
2018-12-20T07:25:25.791Z,98.17
2018-12-20T07:26:25.783Z,98.03
2018-12-20T07:27:25.777Z,98.31
2018-12-20T07:28:25.767Z,98.83
2018-12-20T07:29:25.775Z,98.22
2018-12-20T07:30:26.533Z,98.22
2018-12-20T07:31:25.748Z,98.74
2018-12-20T07:32:25.736Z,98.97
2018-12-20T07:33:25.729Z,99.02
2018-12-20T07:34:25.802Z,98.93
2018-12-20T07:35:25.703Z,99.11
2018-12-20T07:36:25.695Z,98.74
2018-12-20T07:37:25.697Z,98.07
2018-12-20T07:38:25.693Z,97.97
2018-12-20T07:39:25.684Z,98.36
2018-12-20T07:40:25.675Z,97.97
2018-12-20T07:41:25.665Z,98.07
2018-12-20T07:42:25.658Z,96.93
2018-12-20T07:43:25.649Z,97.97
2018-12-20T07:44:25.647Z,98.17
2018-12-20T07:45:25.633Z,98.07
2018-12-20T07:46:25.627Z,97.97
2018-12-20T07:47:25.621Z,97.78
2018-12-20T07:48:32.128Z,97.31
2018-12-20T07:49:25.609Z,97.69
2018-12-20T07:50:25.593Z,97.22
2018-12-20T07:51:25.607Z,97.41
2018-12-20T07:52:25.576Z,96.84
2018-12-20T07:53:25.685Z,97.31
2018-12-20T07:54:25.561Z,97.41
2018-12-20T07:55:25.564Z,98.17
2018-12-20T07:56:25.544Z,97.41
2018-12-20T07:57:25.585Z,97.88
2018-12-20T07:58:25.528Z,97.97
2018-12-20T07:59:25.520Z,97.97
2018-12-20T08:00:25.510Z,97.60
2018-12-20T08:01:25.549Z,97.41
2018-12-20T08:02:25.496Z,97.97
2018-12-20T08:03:25.487Z,97.78
2018-12-20T08:04:25.486Z,97.97
2018-12-20T08:05:25.473Z,97.69
2018-12-20T08:06:25.474Z,98.07
2018-12-20T08:07:25.455Z,98.07
2018-12-20T08:08:25.465Z,97.97
2018-12-20T08:09:25.437Z,97.97
2018-12-20T08:10:25.454Z,97.60
2018-12-20T08:11:25.421Z,97.22
2018-12-20T08:12:25.414Z,97.41
2018-12-20T08:13:25.406Z,97.60
2018-12-20T08:14:25.408Z,97.41
2018-12-20T08:15:25.389Z,97.03
2018-12-20T08:16:25.381Z,97.97
2018-12-20T08:17:25.371Z,97.97
2018-12-20T08:18:25.364Z,97.88
2018-12-20T08:19:25.357Z,98.07
2018-12-20T08:20:25.413Z,97.97
2018-12-20T08:21:25.346Z,97.88
2018-12-20T08:22:25.333Z,98.17
2018-12-20T08:23:25.325Z,98.93
2018-12-20T08:24:25.316Z,98.26
2018-12-20T08:25:25.349Z,99.02
2018-12-20T08:26:25.300Z,98.26
2018-12-20T08:27:25.292Z,99.11
2018-12-20T08:28:25.286Z,98.93
2018-12-20T08:29:25.277Z,97.88
2018-12-20T08:30:25.267Z,98.36
2018-12-20T08:31:25.302Z,97.88
2018-12-20T08:32:25.254Z,99.02
2018-12-20T08:33:25.244Z,99.11
2018-12-20T08:34:25.237Z,97.97
2018-12-20T08:35:25.229Z,98.36
2018-12-20T08:36:25.227Z,97.97
2018-12-20T08:37:25.210Z,97.78
2018-12-20T08:38:25.204Z,97.78
2018-12-20T08:39:25.196Z,98.26
2018-12-20T08:40:25.190Z,98.07
2018-12-20T08:41:25.197Z,97.78
2018-12-20T08:42:25.172Z,97.97
2018-12-20T08:43:25.168Z,97.60
2018-12-20T08:44:25.154Z,98.17
2018-12-20T08:45:25.146Z,98.36
2018-12-20T08:46:25.138Z,98.36
2018-12-20T08:47:25.300Z,97.97
2018-12-20T08:48:25.173Z,98.07
2018-12-20T08:49:25.114Z,98.17
2018-12-20T08:50:25.107Z,98.36
2018-12-20T08:51:25.098Z,97.88
2018-12-20T08:52:25.091Z,98.36
2018-12-20T08:53:25.083Z,97.60
2018-12-20T08:54:25.122Z,98.17
2018-12-20T08:55:25.065Z,98.45
2018-12-20T08:56:25.058Z,97.97
2018-12-20T08:57:25.050Z,98.17
2018-12-20T08:58:25.046Z,97.97
2018-12-20T08:59:25.035Z,98.36
2018-12-20T09:00:25.025Z,97.69
2018-12-20T09:01:25.018Z,97.97
2018-12-20T09:02:25.679Z,97.78
2018-12-20T09:03:25.002Z,97.88
2018-12-20T09:04:24.994Z,99.16
2018-12-20T09:05:24.986Z,98.88
2018-12-20T09:06:24.977Z,98.60
2018-12-20T09:07:24.969Z,98.97
2018-12-20T09:08:25.448Z,98.97
2018-12-20T09:09:24.954Z,98.97
2018-12-20T09:10:24.949Z,98.88
2018-12-20T09:11:24.939Z,98.31
2018-12-20T09:12:24.940Z,98.60
2018-12-20T09:13:24.922Z,99.07
2018-12-20T09:14:24.922Z,98.88
2018-12-20T09:15:24.908Z,98.88
2018-12-20T09:16:24.903Z,99.07
2018-12-20T09:17:24.893Z,98.22
2018-12-20T09:18:24.886Z,98.41
2018-12-20T09:19:24.925Z,98.41
2018-12-20T09:20:32.528Z,98.60
2018-12-20T09:21:24.860Z,98.22
2018-12-20T09:22:24.861Z,98.12
2018-12-20T09:23:24.850Z,98.50
2018-12-20T09:24:24.835Z,98.50
2018-12-20T09:25:24.830Z,98.97
2018-12-20T09:26:24.821Z,98.41
2018-12-20T09:27:24.813Z,98.22
2018-12-20T09:28:24.807Z,98.31
2018-12-20T09:29:24.798Z,98.41
2018-12-20T09:30:30.520Z,99.16
2018-12-20T09:31:24.857Z,98.60
2018-12-20T09:32:24.775Z,98.12
2018-12-20T09:33:24.765Z,98.31
2018-12-20T09:34:24.773Z,99.26
2018-12-20T09:35:24.758Z,99.07
2018-12-20T09:36:24.744Z,98.97
2018-12-20T09:37:24.804Z,98.79
2018-12-20T09:38:24.728Z,99.36
2018-12-20T09:39:24.784Z,98.88
2018-12-20T09:40:24.719Z,98.60
2018-12-20T09:41:24.771Z,98.31
2018-12-20T09:42:24.699Z,98.12
2018-12-20T09:43:25.040Z,98.60
2018-12-20T09:44:24.950Z,98.22
2018-12-20T09:45:25.323Z,97.93
2018-12-20T09:46:24.735Z,98.22
2018-12-20T09:47:25.104Z,98.41
2018-12-20T09:48:24.842Z,99.07
2018-12-20T09:49:24.688Z,99.26
2018-12-20T09:50:24.681Z,98.97
2018-12-20T09:51:24.629Z,98.41
2018-12-20T09:52:24.625Z,98.03
2018-12-20T09:53:24.614Z,98.03
2018-12-20T09:54:24.610Z,98.22
2018-12-20T09:55:24.627Z,98.22
2018-12-20T09:56:24.616Z,97.93
2018-12-20T09:57:24.743Z,98.12
2018-12-20T09:58:24.617Z,98.31
2018-12-20T09:59:24.593Z,98.31
2018-12-20T10:00:24.564Z,98.36
2018-12-20T10:01:24.555Z,98.83
2018-12-20T10:02:24.548Z,99.31
2018-12-20T10:03:25.203Z,99.41
2018-12-20T10:04:26.433Z,99.99
2018-12-20T10:05:24.524Z,99.60
2018-12-20T10:06:24.517Z,99.41
2018-12-20T10:07:24.574Z,99.50
2018-12-20T10:08:24.503Z,99.60
2018-12-20T10:09:24.497Z,99.99
2018-12-20T10:10:24.490Z,99.88
2018-12-20T10:11:24.482Z,99.98
2018-12-20T10:12:24.475Z,99.99
2018-12-20T10:13:24.740Z,99.99
2018-12-20T10:14:24.535Z,99.88
2018-12-20T10:15:24.467Z,99.88
2018-12-20T10:16:24.455Z,99.99
2018-12-20T10:17:24.470Z,99.99
2018-12-20T10:18:24.448Z,99.99
2018-12-20T10:19:24.497Z,99.99
2018-12-20T10:20:24.423Z,99.99
2018-12-20T10:21:24.410Z,99.98
2018-12-20T10:22:24.413Z,99.99
2018-12-20T10:23:24.399Z,99.69
2018-12-20T10:24:25.370Z,99.60
2018-12-20T10:25:24.374Z,99.88
2018-12-20T10:26:24.365Z,99.55
2018-12-20T10:27:31.435Z,99.99
2018-12-20T10:28:24.347Z,99.99
2018-12-20T10:29:24.347Z,99.99
2018-12-20T10:30:24.348Z,99.99
2018-12-20T10:31:24.341Z,99.99
2018-12-20T10:32:24.333Z,99.99
2018-12-20T10:33:24.326Z,99.99
2018-12-20T10:34:25.061Z,99.99
2018-12-20T10:35:24.323Z,99.99
2018-12-20T10:36:24.308Z,99.99
2018-12-20T10:37:24.299Z,99.99
2018-12-20T10:38:24.292Z,99.84
2018-12-20T10:39:24.557Z,99.84
2018-12-20T10:40:24.267Z,99.99
2018-12-20T10:41:24.261Z,99.99
2018-12-20T10:42:24.274Z,99.99
2018-12-20T10:43:24.258Z,99.99
2018-12-20T10:44:24.247Z,99.99
2018-12-20T10:45:24.244Z,99.99
2018-12-20T10:46:24.421Z,99.99
2018-12-20T10:47:28.890Z,99.99
2018-12-20T10:48:24.225Z,99.99
2018-12-20T10:49:24.483Z,99.99
2018-12-20T10:50:24.283Z,99.99
2018-12-20T10:51:24.205Z,99.99
2018-12-20T10:52:24.197Z,99.99
2018-12-20T10:53:24.189Z,99.99
2018-12-20T10:54:24.450Z,99.99
2018-12-20T10:55:24.168Z,99.99
2018-12-20T10:56:24.159Z,99.99
2018-12-20T10:57:24.168Z,99.99
2018-12-20T10:58:24.158Z,99.99
2018-12-20T10:59:24.184Z,99.99
2018-12-20T11:00:24.133Z,99.99
2018-12-20T11:01:24.130Z,99.99
2018-12-20T11:02:24.132Z,99.99
2018-12-20T11:03:24.146Z,99.99
2018-12-20T11:04:24.122Z,99.99
2018-12-20T11:05:24.111Z,99.99
2018-12-20T11:06:24.105Z,99.99
2018-12-20T11:07:24.100Z,99.99
2018-12-20T11:08:24.094Z,99.99
2018-12-20T11:09:24.086Z,99.99
2018-12-20T11:10:24.079Z,99.99
2018-12-20T11:11:24.075Z,99.99
2018-12-20T11:12:24.227Z,99.99
2018-12-20T11:13:24.060Z,99.99
2018-12-20T11:14:24.055Z,99.99
2018-12-20T11:15:24.048Z,99.99
2018-12-20T11:16:24.040Z,99.99
2018-12-20T11:17:24.034Z,99.99
2018-12-20T11:18:24.028Z,99.99
2018-12-20T11:19:24.026Z,99.99
2018-12-20T11:20:24.017Z,99.99
2018-12-20T11:21:24.015Z,99.99
2018-12-20T11:22:24.005Z,99.99
2018-12-20T11:23:24.000Z,99.99
2018-12-20T11:24:23.993Z,99.99
2018-12-20T11:25:23.987Z,99.99
2018-12-20T11:26:23.980Z,99.99
2018-12-20T11:27:23.978Z,99.99
2018-12-20T11:28:23.982Z,99.99
2018-12-20T11:29:24.025Z,99.99
2018-12-20T11:30:23.955Z,99.99
2018-12-20T11:31:23.949Z,99.99
2018-12-20T11:32:24.683Z,99.99
2018-12-20T11:33:23.936Z,99.99
2018-12-20T11:34:23.930Z,99.99
2018-12-20T11:35:23.961Z,99.99
2018-12-20T11:36:23.924Z,99.99
2018-12-20T11:37:23.928Z,99.99
2018-12-20T11:38:23.941Z,99.99
2018-12-20T11:39:23.901Z,99.99
2018-12-20T11:40:23.894Z,99.99
2018-12-20T11:41:23.888Z,99.99
2018-12-20T11:42:23.887Z,99.99
2018-12-20T11:43:23.877Z,99.99
2018-12-20T11:44:23.871Z,99.99
2018-12-20T11:45:23.863Z,99.99
2018-12-20T11:46:24.012Z,99.99
2018-12-20T11:47:23.854Z,99.99
2018-12-20T11:48:23.850Z,99.99
2018-12-20T11:49:23.840Z,99.99
2018-12-20T11:50:23.836Z,99.99
2018-12-20T11:51:23.829Z,99.99
2018-12-20T11:52:23.856Z,99.99
2018-12-20T11:53:23.841Z,99.99
2018-12-20T11:54:23.813Z,99.99
2018-12-20T11:55:24.045Z,99.99
2018-12-20T11:56:23.792Z,99.99
2018-12-20T11:57:23.784Z,99.99
2018-12-20T11:58:23.787Z,99.99
2018-12-20T11:59:23.781Z,99.99
2018-12-20T12:00:23.787Z,99.99
2018-12-20T12:01:23.770Z,99.99
2018-12-20T12:02:24.555Z,99.99
2018-12-20T12:03:23.756Z,99.99
2018-12-20T12:04:23.750Z,99.99
2018-12-20T12:05:23.742Z,99.99
2018-12-20T12:06:24.367Z,99.99
2018-12-20T12:07:23.730Z,99.99
2018-12-20T12:08:23.733Z,99.99
2018-12-20T12:09:23.783Z,99.99
2018-12-20T12:10:23.721Z,99.99
2018-12-20T12:11:23.716Z,99.99
2018-12-20T12:12:23.732Z,99.99
2018-12-20T12:13:23.695Z,99.99
2018-12-20T12:14:23.699Z,99.99
2018-12-20T12:15:23.690Z,99.99
2018-12-20T12:16:23.682Z,99.99
2018-12-20T12:17:23.671Z,99.99
2018-12-20T12:18:23.670Z,99.99
2018-12-20T12:19:23.659Z,99.99
2018-12-20T12:20:23.667Z,99.99
2018-12-20T12:21:23.646Z,99.99
2018-12-20T12:22:24.151Z,99.99
2018-12-20T12:23:23.752Z,99.99
2018-12-20T12:24:24.375Z,99.99
2018-12-20T12:25:23.814Z,99.99
2018-12-20T12:26:24.517Z,99.99
2018-12-20T12:27:25.605Z,99.99
2018-12-20T12:28:23.595Z,99.99
2018-12-20T12:29:23.605Z,99.99
2018-12-20T12:30:23.592Z,99.99
2018-12-20T12:31:23.594Z,99.99
2018-12-20T12:32:23.616Z,99.99
2018-12-20T12:33:23.566Z,99.99
2018-12-20T12:34:23.560Z,99.99
2018-12-20T12:35:23.564Z,99.99
2018-12-20T12:36:23.560Z,99.99
2018-12-20T12:37:23.553Z,99.99
2018-12-20T12:38:23.546Z,99.99
2018-12-20T12:39:23.540Z,99.99
2018-12-20T12:40:23.548Z,99.99
2018-12-20T12:41:23.530Z,99.99
2018-12-20T12:42:23.523Z,99.99
2018-12-20T12:43:23.517Z,99.99
2018-12-20T12:44:23.511Z,99.99
2018-12-20T12:45:23.503Z,99.99
2018-12-20T12:46:23.499Z,99.99
2018-12-20T12:47:23.495Z,99.99
2018-12-20T12:48:23.488Z,99.99
2018-12-20T12:49:24.132Z,99.99
2018-12-20T12:50:23.478Z,99.99
2018-12-20T12:51:23.682Z,99.99
2018-12-20T12:52:23.501Z,99.99